createdAt,value
2023-01-17T00:14:41.361Z,34.68
2023-01-17T00:34:41.082Z,34.68
2023-01-17T00:54:41.850Z,34.67
2023-01-17T01:34:41.866Z,34.66
2023-01-17T01:54:41.074Z,34.65
2023-01-17T02:14:41.069Z,34.65
2023-01-17T02:34:41.832Z,34.65
2023-01-17T02:54:42.002Z,34.64
2023-01-17T03:14:41.077Z,34.63
2023-01-17T03:34:41.831Z,34.63
2023-01-17T03:54:41.818Z,34.63
2023-01-17T04:14:41.859Z,34.62
2023-01-17T04:34:41.820Z,34.61
2023-01-17T04:54:41.811Z,34.61
2023-01-17T05:14:41.726Z,34.6
2023-01-17T05:34:41.045Z,34.61
2023-01-17T05:54:41.804Z,34.6
2023-01-17T06:14:41.812Z,34.6
2023-01-17T06:34:41.298Z,34.59
2023-01-17T06:54:41.814Z,34.59
2023-01-17T07:14:41.034Z,34.59
2023-01-17T07:34:41.800Z,34.58
2023-01-17T07:54:41.830Z,34.59
2023-01-17T08:34:41.049Z,34.58
2023-01-17T08:54:41.796Z,34.58
2023-01-17T09:14:41.665Z,34.58
2023-01-17T09:34:41.790Z,34.57
2023-01-17T09:54:41.792Z,34.57
2023-01-17T10:14:41.780Z,34.58
2023-01-17T10:34:41.261Z,34.58
2023-01-17T10:54:41.780Z,34.57
2023-01-17T11:14:41.777Z,34.57
2023-01-17T11:34:41.639Z,34.57
2023-01-17T11:54:41.780Z,34.57
2023-01-17T12:14:41.760Z,34.57
2023-01-17T12:34:41.775Z,34.57
2023-01-17T12:54:41.070Z,34.57
2023-01-17T13:14:41.230Z,34.57
2023-01-17T13:34:41.623Z,34.56
2023-01-17T13:54:41.776Z,34.56
2023-01-17T14:14:41.025Z,34.56
2023-01-17T14:54:41.745Z,34.56
2023-01-17T15:14:41.767Z,34.56
2023-01-17T15:34:41.737Z,34.56
2023-01-17T15:54:41.217Z,34.56
2023-01-17T16:14:59.440Z,34.55
2023-01-17T16:34:40.958Z,34.55
2023-01-17T16:54:41.741Z,34.55
2023-01-17T17:34:41.721Z,34.55
2023-01-17T17:54:41.767Z,34.55
2023-01-17T18:14:41.719Z,34.54
2023-01-17T18:34:41.217Z,34.54
2023-01-17T18:54:40.580Z,34.54
2023-01-17T19:14:41.741Z,34.54
2023-01-17T19:34:41.742Z,34.54
2023-01-17T19:54:41.713Z,34.53
2023-01-17T20:14:41.722Z,34.54
2023-01-17T20:34:43.495Z,34.53
2023-01-17T21:14:41.705Z,34.53
2023-01-17T21:34:41.710Z,34.53
2023-01-17T21:54:41.714Z,34.53
2023-01-17T22:14:41.712Z,34.52
2023-01-17T22:34:41.711Z,34.52
2023-01-17T22:54:41.724Z,34.52
2023-01-17T23:34:41.708Z,34.51
2023-01-17T23:54:41.700Z,34.51
